Time;durP1;ratioP1;P1;durP2;ratioP2;P2;SDS_P1;SDS_P2;PMS_P1;PMS_P2;Temp;Humidity;BMP_temperature;BMP_pressure;BME280_temperature;BME280_humidity;BME280_pressure;Samples;Min_cycle;Max_cycle;Signal;HPM_P1;HPM_P2
2021/06/04 00:00:35;;;;;;;0.10;0.10;;;18.00;94.80;;;;;;6273151;22;20000;-82
2021/06/04 00:03:05;;;;;;;0.10;0.10;;;18.00;94.80;;;;;;6273314;22;20045;-82
2021/06/04 00:05:35;;;;;;;0.10;0.10;;;18.00;95.00;;;;;;6274015;22;20449;-82
2021/06/04 00:08:05;;;;;;;0.10;0.10;;;17.90;94.70;;;;;;6273461;22;20083;-82
2021/06/04 00:10:39;;;;;;;0.10;0.10;;;17.90;94.90;;;;;;6273865;22;20027;-82
2021/06/04 00:13:32;;;;;;;0.10;0.10;;;17.80;95.00;;;;;;6272847;22;20258;-83
2021/06/04 00:16:03;;;;;;;0.10;0.10;;;17.80;94.90;;;;;;6270576;22;20000;-83
2021/06/04 00:18:30;;;;;;;0.10;0.10;;;17.80;95.00;;;;;;6272936;22;20553;-82
2021/06/04 00:20:56;;;;;;;0.10;0.10;;;17.80;94.90;;;;;;6273938;22;20050;-83
2021/06/04 00:23:22;;;;;;;0.10;0.10;;;17.70;95.10;;;;;;6273694;22;20000;-82
2021/06/04 00:25:48;;;;;;;0.10;0.10;;;17.70;95.40;;;;;;6272877;22;20007;-83
2021/06/04 00:28:14;;;;;;;0.10;0.10;;;17.70;95.20;;;;;;6272046;22;20151;-82
2021/06/04 00:30:40;;;;;;;0.10;0.10;;;17.70;95.10;;;;;;6272031;22;20343;-82
2021/06/04 00:33:06;;;;;;;0.10;0.10;;;17.60;94.90;;;;;;6272923;22;20065;-82
2021/06/04 00:35:37;;;;;;;0.10;0.10;;;17.60;94.90;;;;;;6274584;22;20003;-82
2021/06/04 00:38:05;;;;;;;0.10;0.10;;;17.60;94.80;;;;;;6275022;22;20000;-84
2021/06/04 00:40:45;;;;;;;0.10;0.10;;;17.60;95.20;;;;;;6275598;22;20030;-82
2021/06/04 00:43:11;;;;;;;0.10;0.10;;;17.60;95.40;;;;;;6274608;22;20065;-83
2021/06/04 00:45:41;;;;;;;0.10;0.10;;;17.60;95.30;;;;;;6275259;22;20438;-84
2021/06/04 00:48:07;;;;;;;0.10;0.10;;;17.60;95.40;;;;;;6274975;22;20553;-83
2021/06/04 00:50:38;;;;;;;0.10;0.10;;;17.60;95.10;;;;;;6276090;22;20007;-82
2021/06/04 00:53:05;;;;;;;0.40;0.40;;;17.60;95.10;;;;;;6274762;22;20098;-82
2021/06/04 00:55:31;;;;;;;0.10;0.10;;;17.60;95.00;;;;;;6274326;22;20035;-82
2021/06/04 00:57:57;;;;;;;0.10;0.10;;;17.60;95.10;;;;;;6273829;22;20008;-82
2021/06/04 01:00:51;;;;;;;0.20;0.20;;;17.60;95.20;;;;;;6276262;22;20010;-82
2021/06/04 01:03:20;;;;;;;0.10;0.10;;;17.60;95.30;;;;;;6272216;22;20014;-81
2021/06/04 01:05:46;;;;;;;0.10;0.10;;;17.60;95.30;;;;;;6275817;22;20004;-82
2021/06/04 01:08:40;;;;;;;0.10;0.10;;;17.60;95.10;;;;;;6274360;22;20330;-82
2021/06/04 01:11:32;;;;;;;0.10;0.10;;;17.60;95.40;;;;;;6274499;22;20003;-82
2021/06/04 01:14:19;;;;;;;0.10;0.10;;;17.60;95.30;;;;;;6274663;22;20008;-83
2021/06/04 01:16:47;;;;;;;0.10;0.10;;;17.50;95.20;;;;;;6272690;22;19999;-82
2021/06/04 01:19:22;;;;;;;0.10;0.10;;;17.50;95.50;;;;;;6274276;22;20000;-82
2021/06/04 01:21:58;;;;;;;0.10;0.10;;;17.50;95.10;;;;;;6274465;22;19996;-82
2021/06/04 01:24:29;;;;;;;0.10;0.10;;;17.50;95.20;;;;;;6274433;22;20411;-83
2021/06/04 01:27:00;;;;;;;0.10;0.10;;;17.40;95.50;;;;;;6274652;22;20011;-82
2021/06/04 01:29:34;;;;;;;0.10;0.10;;;17.40;95.40;;;;;;6273516;22;20438;-82
2021/06/04 01:32:09;;;;;;;0.10;0.10;;;17.30;95.40;;;;;;6274260;22;20097;-82
2021/06/04 01:34:44;;;;;;;0.10;0.10;;;17.40;95.40;;;;;;6272630;22;20015;-82
2021/06/04 01:37:19;;;;;;;0.10;0.10;;;17.40;95.30;;;;;;6274575;22;20003;-82
2021/06/04 01:39:52;;;;;;;0.10;0.10;;;17.30;95.40;;;;;;6274244;22;19996;-82
2021/06/04 01:42:22;;;;;;;0.10;0.10;;;17.30;95.90;;;;;;6272101;22;20000;-82
2021/06/04 01:45:01;;;;;;;0.10;0.10;;;17.30;95.90;;;;;;6273890;22;20031;-81
2021/06/04 01:47:40;;;;;;;0.10;0.10;;;17.20;96.00;;;;;;6273865;22;20169;-82
2021/06/04 01:50:21;;;;;;;0.10;0.10;;;17.20;96.20;;;;;;6274564;22;20003;-83
2021/06/04 01:52:48;;;;;;;0.10;0.10;;;17.10;96.40;;;;;;6272305;22;20011;-82
2021/06/04 01:55:19;;;;;;;0.10;0.10;;;17.20;96.50;;;;;;6275215;22;20322;-82
2021/06/04 01:57:57;;;;;;;0.10;0.10;;;17.10;96.40;;;;;;6274851;22;19995;-82
2021/06/04 02:00:42;;;;;;;0.10;0.10;;;17.20;96.50;;;;;;6273547;22;20026;-83
2021/06/04 02:03:13;;;;;;;0.10;0.10;;;17.10;96.90;;;;;;6274821;22;20004;-82
2021/06/04 02:05:39;;;;;;;0.10;0.10;;;17.10;97.00;;;;;;6273545;22;19999;-82
2021/06/04 02:08:09;;;;;;;0.10;0.10;;;17.10;96.90;;;;;;6274503;22;20004;-82
2021/06/04 02:10:43;;;;;;;0.10;0.10;;;17.00;96.90;;;;;;6275073;22;20003;-83
2021/06/04 02:13:11;;;;;;;0.10;0.10;;;17.00;96.80;;;;;;6274666;22;20015;-83
2021/06/04 02:15:44;;;;;;;0.10;0.10;;;16.90;96.80;;;;;;6273135;22;20000;-82
2021/06/04 02:18:28;;;;;;;0.10;0.10;;;16.90;97.10;;;;;;6273276;22;20386;-83
2021/06/04 02:21:02;;;;;;;0.00;0.00;;;16.90;97.30;;;;;;6275073;22;19999;-82
2021/06/04 02:23:33;;;;;;;0.10;0.10;;;16.80;97.50;;;;;;6272245;22;20008;-82
2021/06/04 02:26:37;;;;;;;0.20;0.20;;;16.80;98.20;;;;;;6275146;22;20335;-83
2021/06/04 02:29:20;;;;;;;0.10;0.10;;;16.80;97.90;;;;;;6273009;22;20026;-82
2021/06/04 02:31:48;;;;;;;0.10;0.10;;;16.80;97.80;;;;;;6274406;22;20012;-82
2021/06/04 02:34:22;;;;;;;0.10;0.10;;;16.80;97.70;;;;;;6272885;22;20018;-82
2021/06/04 02:36:59;;;;;;;0.10;0.10;;;16.80;97.90;;;;;;6274863;22;20419;-82
2021/06/04 02:39:30;;;;;;;0.10;0.10;;;16.80;98.10;;;;;;6274835;22;19999;-82
2021/06/04 02:42:01;;;;;;;0.10;0.10;;;16.80;98.10;;;;;;6274575;22;20052;-82
2021/06/04 02:44:30;;;;;;;0.10;0.10;;;16.70;98.30;;;;;;6272967;22;20008;-82
2021/06/04 02:47:18;;;;;;;7.13;1.35;;;16.70;98.30;;;;;;6272485;22;20087;-82
2021/06/04 02:49:44;;;;;;;0.10;0.10;;;16.70;98.60;;;;;;6274767;22;20082;-82
2021/06/04 02:52:23;;;;;;;0.32;0.32;;;16.70;98.30;;;;;;6272743;22;20014;-83
2021/06/04 02:54:49;;;;;;;0.10;0.10;;;16.70;98.40;;;;;;6273093;22;20035;-83
2021/06/04 02:57:18;;;;;;;0.10;0.10;;;16.80;98.20;;;;;;6274310;22;20000;-82
2021/06/04 02:59:46;;;;;;;0.10;0.10;;;16.80;98.50;;;;;;6274328;22;20083;-82
2021/06/04 03:02:22;;;;;;;0.10;0.10;;;16.80;98.30;;;;;;6271960;22;20014;-82
2021/06/04 03:04:52;;;;;;;0.30;0.30;;;16.80;98.20;;;;;;6274600;22;19996;-82
2021/06/04 03:07:30;;;;;;;0.10;0.10;;;16.80;98.20;;;;;;6272578;22;20034;-82
2021/06/04 03:09:57;;;;;;;0.10;0.10;;;16.80;98.30;;;;;;6274291;22;19996;-82
2021/06/04 03:12:26;;;;;;;;;;;16.80;98.60;;;;;;6274687;22;20385;-82
2021/06/04 03:14:53;;;;;;;;;;;16.80;98.60;;;;;;6274645;22;19899;-83
2021/06/04 03:17:26;;;;;;;0.10;0.10;;;16.80;98.90;;;;;;6274017;22;19899;-82
2021/06/04 03:19:52;;;;;;;0.10;0.10;;;16.70;98.70;;;;;;6274799;22;19996;-82
2021/06/04 03:22:30;;;;;;;0.10;0.10;;;16.80;98.70;;;;;;6272310;22;20007;-82
2021/06/04 03:24:59;;;;;;;0.10;0.10;;;16.80;98.50;;;;;;6272937;22;20003;-83
2021/06/04 03:27:25;;;;;;;0.10;0.10;;;16.80;98.80;;;;;;6272310;22;20000;-82
2021/06/04 03:29:52;;;;;;;0.10;0.10;;;16.70;98.60;;;;;;6272713;22;20085;-82
2021/06/04 03:32:18;;;;;;;0.10;0.10;;;16.70;98.70;;;;;;6274125;22;20012;-82
2021/06/04 03:34:46;;;;;;;0.10;0.10;;;16.70;99.00;;;;;;6274088;22;20442;-81
2021/06/04 03:37:13;;;;;;;0.10;0.10;;;16.70;98.80;;;;;;6274241;22;20031;-82
2021/06/04 03:39:43;;;;;;;0.10;0.10;;;16.70;99.10;;;;;;6274244;22;20046;-82
2021/06/04 03:42:13;;;;;;;0.10;0.10;;;16.70;99.10;;;;;;6274106;22;20008;-82
2021/06/04 03:44:41;;;;;;;0.10;0.10;;;16.70;99.40;;;;;;6274014;22;20007;-82
2021/06/04 03:47:07;;;;;;;0.00;0.00;;;16.70;99.40;;;;;;6273762;22;20003;-82
2021/06/04 03:49:34;;;;;;;0.10;0.10;;;16.70;99.50;;;;;;6272337;22;20126;-83
2021/06/04 03:52:01;;;;;;;0.10;0.10;;;16.70;99.60;;;;;;6273964;22;20015;-83
2021/06/04 03:54:34;;;;;;;0.10;0.10;;;16.70;99.50;;;;;;6274164;22;20003;-83
2021/06/04 03:57:02;;;;;;;0.10;0.10;;;16.70;99.20;;;;;;6273850;22;20003;-82
2021/06/04 03:59:28;;;;;;;0.10;0.10;;;16.80;99.30;;;;;;6272308;22;20010;-82
2021/06/04 04:02:01;;;;;;;0.10;0.10;;;16.80;99.20;;;;;;6273988;22;20334;-83
2021/06/04 04:04:27;;;;;;;0.00;0.00;;;16.70;99.90;;;;;;6274091;22;19995;-83
2021/06/04 04:06:54;;;;;;;0.10;0.10;;;16.80;99.90;;;;;;6273832;22;20041;-83
2021/06/04 04:09:20;;;;;;;0.10;0.10;;;16.80;99.90;;;;;;6274478;22;20000;-84
2021/06/04 04:11:49;;;;;;;0.10;0.10;;;16.80;99.90;;;;;;6274235;22;20026;-82
2021/06/04 04:14:15;;;;;;;0.10;0.10;;;16.90;99.90;;;;;;6274781;22;20011;-83
2021/06/04 04:16:41;;;;;;;0.30;0.30;;;16.90;99.90;;;;;;6276169;22;20030;-83
2021/06/04 04:19:07;;;;;;;0.10;0.10;;;16.90;99.90;;;;;;6276102;22;19995;-82
2021/06/04 04:21:33;;;;;;;0.10;0.10;;;17.00;99.90;;;;;;6274480;22;20007;-84
2021/06/04 04:24:04;;;;;;;0.10;0.10;;;17.00;99.90;;;;;;6274354;22;20435;-84
2021/06/04 04:26:34;;;;;;;0.10;0.10;;;17.10;99.90;;;;;;6276171;22;20451;-84
2021/06/04 04:29:00;;;;;;;0.10;0.10;;;17.20;99.90;;;;;;6275690;22;20000;-83
2021/06/04 04:31:32;;;;;;;0.10;0.10;;;17.20;99.90;;;;;;6275586;22;20011;-83
2021/06/04 04:33:59;;;;;;;0.10;0.10;;;17.30;99.60;;;;;;6275398;22;20003;-84
2021/06/04 04:36:30;;;;;;;1.13;1.13;;;17.30;99.80;;;;;;6276240;22;19995;-84
2021/06/04 04:38:56;;;;;;;0.10;0.10;;;17.30;99.50;;;;;;6275468;22;20009;-83
2021/06/04 04:41:22;;;;;;;0.10;0.10;;;17.40;99.90;;;;;;6276552;22;20004;-83
2021/06/04 04:43:50;;;;;;;0.10;0.10;;;17.50;99.50;;;;;;6273472;22;20450;-81
2021/06/04 04:46:19;;;;;;;0.10;0.10;;;17.50;99.90;;;;;;6274627;22;20010;-82
2021/06/04 04:48:45;;;;;;;0.08;0.08;;;17.50;99.80;;;;;;6275665;22;20098;-84
2021/06/04 04:51:12;;;;;;;0.10;0.10;;;17.60;99.70;;;;;;6275844;22;20000;-83
2021/06/04 04:53:38;;;;;;;0.10;0.10;;;17.70;99.90;;;;;;6273747;22;20014;-83
2021/06/04 04:56:06;;;;;;;0.10;0.10;;;17.70;99.90;;;;;;6276493;22;20083;-83
2021/06/04 04:58:32;;;;;;;0.10;0.10;;;17.80;99.90;;;;;;6275713;22;20141;-83
2021/06/04 05:00:58;;;;;;;0.98;0.98;;;17.80;99.90;;;;;;6275585;22;20002;-82
2021/06/04 05:03:26;;;;;;;0.10;0.10;;;17.80;99.90;;;;;;6275626;22;20003;-82
2021/06/04 05:05:52;;;;;;;0.10;0.10;;;17.90;99.90;;;;;;6274422;22;20011;-86
2021/06/04 05:08:18;;;;;;;0.10;0.10;;;18.00;99.90;;;;;;6275090;22;20004;-84
2021/06/04 05:10:45;;;;;;;0.10;0.10;;;18.00;99.90;;;;;;6274221;22;20439;-84
2021/06/04 05:13:10;;;;;;;;;;;18.10;99.60;;;;;;6275775;22;20025;-82
2021/06/04 05:15:38;;;;;;;0.10;0.10;;;18.10;99.40;;;;;;6275363;22;19985;-81
2021/06/04 05:18:07;;;;;;;0.10;0.10;;;18.20;99.90;;;;;;6275643;22;20435;-83
2021/06/04 05:20:33;;;;;;;0.10;0.10;;;18.30;99.90;;;;;;6275471;22;20003;-81
2021/06/04 05:23:01;;;;;;;0.20;0.20;;;18.30;99.90;;;;;;6274338;22;20003;-84
2021/06/04 05:25:35;;;;;;;0.10;0.10;;;18.30;99.90;;;;;;6275825;22;20377;-83
2021/06/04 05:28:01;;;;;;;0.10;0.10;;;18.40;99.90;;;;;;6273578;22;20004;-84
2021/06/04 05:30:32;;;;;;;0.10;0.10;;;18.50;99.90;;;;;;6275296;22;20039;-86
2021/06/04 05:32:58;;;;;;;0.10;0.10;;;18.50;99.90;;;;;;6274599;22;20008;-84
2021/06/04 05:35:26;;;;;;;0.10;0.10;;;18.50;99.90;;;;;;6273313;22;20003;-83
2021/06/04 05:37:52;;;;;;;0.20;0.20;;;18.60;99.90;;;;;;6274330;22;20007;-83
2021/06/04 05:40:23;;;;;;;0.10;0.10;;;18.70;99.90;;;;;;6273475;22;20000;-83
2021/06/04 05:42:50;;;;;;;0.45;0.45;;;18.70;99.90;;;;;;6273440;22;20426;-83
2021/06/04 05:45:18;;;;;;;0.10;0.10;;;18.80;99.90;;;;;;6274704;22;20320;-83
2021/06/04 05:47:45;;;;;;;0.10;0.10;;;18.90;99.90;;;;;;6274924;22;20079;-86
2021/06/04 05:50:15;;;;;;;0.10;0.10;;;19.00;99.90;;;;;;6275280;22;19999;-84
2021/06/04 05:52:44;;;;;;;0.10;0.10;;;19.00;99.90;;;;;;6274753;22;20012;-82
2021/06/04 05:55:13;;;;;;;0.10;0.10;;;19.00;99.80;;;;;;6275590;22;20000;-83
2021/06/04 05:57:39;;;;;;;0.10;0.10;;;19.20;99.90;;;;;;6273834;22;19999;-83
2021/06/04 06:00:12;;;;;;;0.10;0.10;;;19.20;99.90;;;;;;6275092;22;19999;-84
2021/06/04 06:02:39;;;;;;;0.10;0.10;;;19.30;99.90;;;;;;6274720;22;20381;-86
2021/06/04 06:05:06;;;;;;;0.10;0.10;;;19.40;99.30;;;;;;6275338;22;19995;-83
2021/06/04 06:07:32;;;;;;;;;;;19.40;99.90;;;;;;6274355;22;20057;-83
2021/06/04 06:09:58;;;;;;;0.10;0.10;;;19.40;99.90;;;;;;6275509;22;20258;-87
2021/06/04 06:12:24;;;;;;;0.10;0.10;;;19.60;99.90;;;;;;6275950;22;20011;-82
2021/06/04 06:14:53;;;;;;;0.10;0.10;;;19.60;99.90;;;;;;6273939;22;20114;-89
2021/06/04 06:17:19;;;;;;;0.10;0.10;;;19.70;99.90;;;;;;6273197;22;20319;-81
2021/06/04 06:19:45;;;;;;;0.10;0.10;;;19.80;99.80;;;;;;6275071;22;19995;-83
2021/06/04 06:22:12;;;;;;;0.10;0.10;;;19.80;99.90;;;;;;6274857;22;20077;-81
2021/06/04 06:24:38;;;;;;;;;;;19.90;99.80;;;;;;6275352;22;20000;-82
2021/06/04 06:27:04;;;;;;;0.10;0.10;;;19.90;99.90;;;;;;6274216;22;19981;-80
2021/06/04 06:29:35;;;;;;;0.10;0.10;;;20.00;99.90;;;;;;6270840;22;20591;-84
2021/06/04 06:32:03;;;;;;;0.10;0.10;;;20.00;99.90;;;;;;6270454;22;20090;-82
2021/06/04 06:34:29;;;;;;;0.10;0.10;;;20.10;99.90;;;;;;6270987;22;20321;-84
2021/06/04 06:36:55;;;;;;;0.10;0.10;;;20.10;99.90;;;;;;6269223;22;20004;-82
2021/06/04 06:39:25;;;;;;;0.95;0.95;;;20.20;99.00;;;;;;6269643;22;19992;-86
2021/06/04 06:41:51;;;;;;;0.10;0.10;;;20.20;98.40;;;;;;6270855;22;20096;-84
2021/06/04 06:44:18;;;;;;;0.57;0.47;;;20.30;98.00;;;;;;6270761;22;20003;-83
2021/06/04 06:46:45;;;;;;;0.20;0.20;;;20.50;97.30;;;;;;6271921;22;20008;-83
2021/06/04 06:49:12;;;;;;;0.10;0.10;;;20.60;96.70;;;;;;6271520;22;20000;-83
2021/06/04 06:51:38;;;;;;;0.45;0.45;;;20.70;98.60;;;;;;6269994;22;20008;-83
2021/06/04 06:54:07;;;;;;;0.10;0.10;;;20.80;98.40;;;;;;6269088;22;20011;-84
2021/06/04 06:56:34;;;;;;;0.10;0.10;;;20.90;96.90;;;;;;6271275;22;20003;-85
2021/06/04 06:59:00;;;;;;;0.30;0.30;;;21.00;97.50;;;;;;6271167;22;20082;-84
2021/06/04 07:01:27;;;;;;;0.30;0.30;;;21.10;96.20;;;;;;6269964;22;20007;-85
2021/06/04 07:03:53;;;;;;;;;;;21.20;96.90;;;;;;6270958;22;20409;-85
2021/06/04 07:06:22;;;;;;;4.38;1.00;;;21.20;94.60;;;;;;6271583;22;19952;-84
2021/06/04 07:08:48;;;;;;;1.20;0.68;;;21.30;96.40;;;;;;6269927;22;20003;-84
2021/06/04 07:11:16;;;;;;;1.80;1.67;;;21.40;96.70;;;;;;6271136;22;20003;-85
2021/06/04 07:13:42;;;;;;;0.10;0.10;;;21.50;96.90;;;;;;6270809;22;20000;-84
2021/06/04 07:16:10;;;;;;;0.10;0.10;;;21.60;95.60;;;;;;6274277;22;19995;-87
2021/06/04 07:18:38;;;;;;;0.68;0.68;;;21.60;96.00;;;;;;6273635;22;20031;-86
2021/06/04 07:21:06;;;;;;;0.63;0.57;;;21.70;94.50;;;;;;6272746;22;20419;-88
2021/06/04 07:23:32;;;;;;;0.10;0.10;;;21.80;94.60;;;;;;6272331;22;20004;-83
2021/06/04 07:25:58;;;;;;;0.10;0.10;;;21.80;95.80;;;;;;6273357;22;20000;-86
2021/06/04 07:28:31;;;;;;;0.10;0.10;;;21.80;95.10;;;;;;6272259;22;20006;-85
2021/06/04 07:30:59;;;;;;;0.10;0.10;;;21.80;95.40;;;;;;6272108;22;20008;-84
2021/06/04 07:33:31;;;;;;;0.10;0.10;;;21.90;93.60;;;;;;6272049;22;20077;-85
2021/06/04 07:35:59;;;;;;;0.10;0.10;;;22.00;95.40;;;;;;6274171;22;19996;-85
2021/06/04 07:38:25;;;;;;;0.20;0.20;;;22.10;93.30;;;;;;6274184;22;20000;-86
2021/06/04 07:40:51;;;;;;;0.30;0.22;;;22.20;95.30;;;;;;6274695;22;20385;-85
2021/06/04 07:43:22;;;;;;;0.80;0.40;;;22.30;94.30;;;;;;6274305;22;20029;-83
2021/06/04 07:45:48;;;;;;;0.80;0.80;;;22.50;92.70;;;;;;6272219;22;20004;-85
2021/06/04 07:48:18;;;;;;;0.30;0.30;;;22.60;92.00;;;;;;6273322;22;20000;-84
2021/06/04 07:50:45;;;;;;;1.02;0.98;;;22.80;91.30;;;;;;6272647;22;20635;-84
2021/06/04 07:53:19;;;;;;;0.93;0.93;;;22.90;90.40;;;;;;6273872;22;20449;-85
2021/06/04 07:55:47;;;;;;;0.60;0.60;;;23.10;91.50;;;;;;6272993;22;20000;-85
2021/06/04 07:58:13;;;;;;;0.20;0.20;;;22.80;91.20;;;;;;6274080;22;20146;-85
2021/06/04 08:00:39;;;;;;;3.78;2.90;;;22.60;91.50;;;;;;6272763;22;20029;-85
2021/06/04 08:03:07;;;;;;;2.70;1.23;;;22.50;92.10;;;;;;6273772;22;19996;-87
2021/06/04 08:05:33;;;;;;;0.40;0.40;;;22.40;91.40;;;;;;6274327;22;20030;-83
2021/06/04 08:08:02;;;;;;;1.52;1.35;;;22.40;92.40;;;;;;6272443;22;20057;-84
2021/06/04 08:10:30;;;;;;;0.50;0.50;;;22.40;91.00;;;;;;6274419;22;20009;-83
2021/06/04 08:12:57;;;;;;;19.27;1.85;;;22.40;91.40;;;;;;6273499;22;20008;-83
2021/06/04 08:15:27;;;;;;;1.50;0.97;;;22.50;90.70;;;;;;6273669;22;20049;-85
2021/06/04 08:17:54;;;;;;;0.40;0.40;;;22.50;91.30;;;;;;6272374;22;20325;-84
2021/06/04 08:20:25;;;;;;;0.32;0.32;;;22.60;90.80;;;;;;6274202;22;20004;-84
2021/06/04 08:22:53;;;;;;;0.63;0.43;;;22.70;89.00;;;;;;6273762;22;20359;-85
2021/06/04 08:25:22;;;;;;;5.65;0.65;;;22.80;88.90;;;;;;6274583;22;19999;-84
2021/06/04 08:27:48;;;;;;;0.20;0.20;;;22.90;89.00;;;;;;6271809;22;20003;-84
2021/06/04 08:30:14;;;;;;;0.20;0.20;;;23.00;86.80;;;;;;6272302;22;20023;-84
2021/06/04 08:32:40;;;;;;;0.10;0.10;;;23.00;89.30;;;;;;6270377;22;20008;-84
2021/06/04 08:35:08;;;;;;;0.30;0.30;;;23.10;87.50;;;;;;6273803;22;19996;-84
2021/06/04 08:37:36;;;;;;;0.10;0.10;;;23.30;90.60;;;;;;6271998;22;20008;-83
2021/06/04 08:40:03;;;;;;;0.75;0.75;;;23.40;85.30;;;;;;6272468;22;19999;-84
2021/06/04 08:42:47;;;;;;;0.10;0.10;;;23.40;84.20;;;;;;6271607;22;20166;-84
2021/06/04 08:46:11;;;;;;;0.10;0.10;;;23.50;85.30;;;;;;6272118;22;20000;-86
2021/06/04 08:48:57;;;;;;;0.10;0.10;;;23.70;91.00;;;;;;6155083;23;20040;-84
2021/06/04 08:51:33;;;;;;;1.00;1.00;;;23.90;92.00;;;;;;6264058;22;20031;-87
2021/06/04 08:54:36;;;;;;;0.30;0.30;;;24.00;90.60;;;;;;6273334;22;20000;-85
2021/06/04 08:57:04;;;;;;;2.05;1.48;;;24.20;89.20;;;;;;6273809;22;20010;-81
2021/06/04 08:59:32;;;;;;;0.75;0.70;;;24.10;81.50;;;;;;6274032;22;20011;-86
2021/06/04 09:02:02;;;;;;;4.85;2.08;;;24.10;82.60;;;;;;6275285;22;20015;-86
2021/06/04 09:04:48;;;;;;;0.68;0.50;;;24.10;85.00;;;;;;6274081;22;20506;-84
2021/06/04 09:07:18;;;;;;;0.10;0.10;;;24.10;83.70;;;;;;6275321;22;20004;-84
2021/06/04 09:09:55;;;;;;;6.85;3.45;;;24.10;86.00;;;;;;6275546;22;20017;-84
2021/06/04 09:12:28;;;;;;;0.88;0.75;;;23.80;81.00;;;;;;6275207;22;20012;-84
2021/06/04 09:14:54;;;;;;;1.90;1.17;;;23.70;86.00;;;;;;6273446;22;20010;-84
2021/06/04 09:17:36;;;;;;;2.00;1.55;;;23.80;85.30;;;;;;6272638;22;20094;-85
2021/06/04 09:20:22;;;;;;;2.20;1.38;;;24.00;86.20;;;;;;6273179;22;20439;-82
2021/06/04 09:22:54;;;;;;;2.15;1.60;;;23.90;84.20;;;;;;6273289;22;20446;-85
2021/06/04 09:25:23;;;;;;;3.60;1.73;;;23.80;82.60;;;;;;6275791;22;20011;-85
2021/06/04 09:28:10;;;;;;;2.75;2.05;;;23.90;80.80;;;;;;6274720;22;20000;-86
2021/06/04 09:30:36;;;;;;;1.52;1.00;;;23.80;78.90;;;;;;6274823;22;20015;-86
2021/06/04 09:33:22;;;;;;;0.82;0.82;;;23.80;81.10;;;;;;6273289;22;20034;-86
2021/06/04 09:35:57;;;;;;;2.33;1.50;;;23.90;80.30;;;;;;6272938;22;20003;-83
2021/06/04 09:38:43;;;;;;;1.13;1.02;;;23.90;79.30;;;;;;6274985;22;20480;-85
2021/06/04 09:41:24;;;;;;;2.15;1.20;;;24.00;79.50;;;;;;6275598;22;20079;-85
2021/06/04 09:44:10;;;;;;;2.88;1.27;;;24.10;78.00;;;;;;6274634;22;20033;-84
2021/06/04 09:47:02;;;;;;;0.40;0.40;;;24.10;77.20;;;;;;6275226;22;20327;-85
2021/06/04 09:49:41;;;;;;;4.10;2.85;;;24.10;79.00;;;;;;6258844;22;20003;-84
2021/06/04 09:52:15;;;;;;;1.75;1.30;;;24.10;78.40;;;;;;6274735;22;20442;-83
2021/06/04 09:54:41;;;;;;;3.13;2.83;;;24.20;78.10;;;;;;6275572;22;20000;-84
2021/06/04 09:57:17;;;;;;;1.83;1.73;;;24.30;78.20;;;;;;6274635;22;20030;-85
2021/06/04 09:59:43;;;;;;;3.83;1.08;;;24.30;77.80;;;;;;6275201;22;20070;-85
2021/06/04 10:02:30;;;;;;;5.97;3.05;;;24.10;75.60;;;;;;6274978;22;20007;-86
2021/06/04 10:05:28;;;;;;;2.30;1.10;;;24.00;75.90;;;;;;6273478;22;20153;-84
2021/06/04 10:08:00;;;;;;;;;;;24.10;77.20;;;;;;6274977;22;20028;-84
2021/06/04 10:10:31;;;;;;;2.25;1.10;;;24.20;77.10;;;;;;6275368;22;19899;-85
2021/06/04 10:13:00;;;;;;;3.00;1.75;;;24.20;77.80;;;;;;6272921;22;20012;-85
2021/06/04 10:15:37;;;;;;;0.65;0.65;;;24.30;76.20;;;;;;6275140;22;20158;-87
2021/06/04 10:18:25;;;;;;;9.20;1.52;;;24.40;79.20;;;;;;6274444;22;20004;-86
2021/06/04 10:20:52;;;;;;;1.55;1.45;;;24.60;75.40;;;;;;6275711;22;20003;-86
2021/06/04 10:23:18;;;;;;;1.35;1.25;;;24.70;74.70;;;;;;6273155;22;20003;-83
2021/06/04 10:25:50;;;;;;;1.52;1.42;;;24.70;74.00;;;;;;6275334;22;20050;-86
2021/06/04 10:28:39;;;;;;;0.75;0.55;;;24.80;74.90;;;;;;6274321;22;20000;-86
2021/06/04 10:31:34;;;;;;;1.70;1.50;;;24.80;76.00;;;;;;6272801;22;20030;-85
2021/06/04 10:34:19;;;;;;;1.77;1.67;;;24.90;74.70;;;;;;6274142;22;20006;-86
2021/06/04 10:36:51;;;;;;;4.13;1.73;;;24.90;74.60;;;;;;6274690;22;20026;-87
2021/06/04 10:39:34;;;;;;;2.78;1.98;;;25.10;74.80;;;;;;6274579;22;20004;-83
2021/06/04 10:42:17;;;;;;;1.98;1.48;;;25.20;72.90;;;;;;6274532;22;20004;-84
2021/06/04 10:44:54;;;;;;;3.00;2.22;;;25.40;73.90;;;;;;6274719;22;20000;-87
2021/06/04 10:47:35;;;;;;;1.58;0.80;;;25.50;75.30;;;;;;6274169;22;20393;-86
2021/06/04 10:50:23;;;;;;;3.72;2.10;;;25.60;74.90;;;;;;6273576;22;19999;-84
2021/06/04 10:52:53;;;;;;;2.13;1.77;;;25.60;72.60;;;;;;6272999;22;20011;-84
2021/06/04 10:55:29;;;;;;;3.63;2.60;;;25.60;73.50;;;;;;6274844;22;20373;-90
2021/06/04 10:58:07;;;;;;;4.38;2.53;;;25.50;73.50;;;;;;6272428;22;20450;-87
2021/06/04 11:00:41;;;;;;;0.65;0.65;;;25.30;73.60;;;;;;6274568;22;19999;-83
2021/06/04 11:03:17;;;;;;;0.20;0.20;;;25.50;73.20;;;;;;6274606;22;20011;-87
2021/06/04 11:06:10;;;;;;;0.40;0.40;;;25.70;75.60;;;;;;6274905;22;19996;-87
2021/06/04 11:09:07;;;;;;;1.42;0.90;;;26.00;76.40;;;;;;6274217;22;19996;-86
2021/06/04 11:11:48;;;;;;;3.85;2.20;;;26.20;72.00;;;;;;6272538;22;20046;-84
2021/06/04 11:14:42;;;;;;;0.15;0.15;;;26.00;74.70;;;;;;6273462;22;20000;-83
2021/06/04 11:17:27;;;;;;;4.13;2.05;;;26.10;74.40;;;;;;6271773;22;20527;-85
2021/06/04 11:19:53;;;;;;;4.93;3.03;;;26.00;73.10;;;;;;6273430;22;19996;-85
2021/06/04 11:22:24;;;;;;;1.73;1.57;;;26.10;72.00;;;;;;6273626;22;20007;-85
2021/06/04 11:25:02;;;;;;;1.08;1.08;;;26.10;74.30;;;;;;6274813;22;20053;-86
2021/06/04 11:27:33;;;;;;;1.30;0.82;;;26.40;73.20;;;;;;6272213;22;20019;-83
2021/06/04 11:30:03;;;;;;;3.13;2.42;;;26.30;72.20;;;;;;6274419;22;20018;-87
2021/06/04 11:32:36;;;;;;;1.83;1.40;;;26.40;72.00;;;;;;6274052;22;20018;-85
2021/06/04 11:35:10;;;;;;;4.00;2.22;;;26.30;72.60;;;;;;6274365;22;20419;-85
2021/06/04 11:37:56;;;;;;;2.45;2.25;;;26.30;72.50;;;;;;6274424;22;19996;-87
2021/06/04 11:40:30;;;;;;;6.72;2.67;;;26.40;73.80;;;;;;6274397;22;20079;-87
2021/06/04 11:43:04;;;;;;;1.42;1.33;;;26.40;73.20;;;;;;6272683;22;20027;-86
2021/06/04 11:45:33;;;;;;;1.67;1.58;;;26.50;73.80;;;;;;6269449;22;20451;-83
2021/06/04 11:48:20;;;;;;;2.70;1.98;;;26.50;71.60;;;;;;6269200;22;20090;-84
2021/06/04 11:50:48;;;;;;;1.08;0.77;;;26.50;71.50;;;;;;6270569;22;20011;-85
2021/06/04 11:53:19;;;;;;;2.85;1.33;;;26.30;73.70;;;;;;6270046;22;20098;-84
2021/06/04 11:55:49;;;;;;;0.40;0.40;;;26.40;72.30;;;;;;6272046;22;20003;-86
2021/06/04 11:58:42;;;;;;;3.83;2.13;;;26.40;71.80;;;;;;6269753;22;20008;-84
2021/06/04 12:01:20;;;;;;;1.98;1.88;;;26.50;70.30;;;;;;6273485;22;20000;-90
2021/06/04 12:03:58;;;;;;;1.88;1.67;;;27.20;70.00;;;;;;6270878;22;20012;-88
2021/06/04 12:06:25;;;;;;;0.38;0.38;;;30.00;62.80;;;;;;6273634;22;20015;-87
2021/06/04 12:08:52;;;;;;;0.50;0.50;;;33.50;57.20;;;;;;6272517;22;20007;-88
2021/06/04 12:11:18;;;;;;;32.13;2.22;;;35.30;50.90;;;;;;6272780;22;20010;-85
2021/06/04 12:13:54;;;;;;;0.40;0.40;;;36.60;47.10;;;;;;6273829;22;20004;-89
2021/06/04 12:16:28;;;;;;;0.73;0.70;;;37.40;43.50;;;;;;6275109;22;20004;-90
2021/06/04 12:19:27;;;;;;;2.22;2.03;;;38.10;42.10;;;;;;6273434;22;20073;-85
2021/06/04 12:22:39;;;;;;;0.65;0.65;;;38.50;40.70;;;;;;6271088;22;20030;-87
2021/06/04 12:25:07;;;;;;;0.70;0.70;;;39.60;40.00;;;;;;6180545;23;20009;-88
2021/06/04 12:27:45;;;;;;;0.38;0.38;;;41.00;37.20;;;;;;6154912;23;20330;-88
2021/06/04 12:30:48;;;;;;;1.80;1.25;;;43.30;33.30;;;;;;6238779;22;20028;-91
2021/06/04 12:33:50;;;;;;;0.73;0.73;;;43.40;30.20;;;;;;6276221;22;20020;-90
2021/06/04 12:36:52;;;;;;;0.70;0.70;;;45.20;30.80;;;;;;6272746;22;20427;-87
2021/06/04 12:39:21;;;;;;;2.30;1.23;;;45.40;29.20;;;;;;6272590;22;20053;-87
2021/06/04 12:42:05;;;;;;;3.22;1.40;;;44.30;29.70;;;;;;6273450;22;20053;-87
2021/06/04 12:44:31;;;;;;;3.92;1.90;;;46.30;28.80;;;;;;6273028;22;20012;-85
2021/06/04 12:46:57;;;;;;;;;;;45.60;29.20;;;;;;6274091;22;20332;-89
2021/06/04 12:49:23;;;;;;;2.17;1.65;;;44.90;29.30;;;;;;6273474;22;19929;-86
2021/06/04 12:51:51;;;;;;;9.48;2.47;;;43.70;31.50;;;;;;6274626;22;20141;-88
2021/06/04 12:54:35;;;;;;;7.93;2.63;;;43.40;30.00;;;;;;6273418;22;20016;-88
2021/06/04 12:57:00;;;;;;;0.98;0.90;;;43.20;31.70;;;;;;6274614;22;20035;-89
2021/06/04 12:59:29;;;;;;;3.63;2.33;;;42.70;32.30;;;;;;6272983;22;20077;-89
2021/06/04 13:01:57;;;;;;;0.70;0.70;;;41.60;31.80;;;;;;6274741;22;20057;-87
2021/06/04 13:04:38;;;;;;;1.50;1.08;;;41.20;34.20;;;;;;6272878;22;20000;-86
2021/06/04 13:07:17;;;;;;;1.00;0.85;;;40.40;35.20;;;;;;6273380;22;20086;-88
2021/06/04 13:09:59;;;;;;;1.45;1.17;;;42.30;33.60;;;;;;6275244;22;20082;-89
2021/06/04 13:12:31;;;;;;;0.52;0.52;;;43.30;31.60;;;;;;6273008;22;20008;-87
2021/06/04 13:15:07;;;;;;;0.63;0.60;;;43.50;32.50;;;;;;6274658;22;19999;-87